Time;durP1;ratioP1;P1;durP2;ratioP2;P2;SDS_P1;SDS_P2;PMS_P1;PMS_P2;Temp;Humidity;BMP_temperature;BMP_pressure;BME280_temperature;BME280_humidity;BME280_pressure;Samples;Min_cycle;Max_cycle;Signal;HPM_P1;HPM_P2
2023/09/24 00:00:55;;;;;;;5.68;4.65;;;12.60;99.90;;;;;;6150526;23;20009;-71
2023/09/24 00:03:20;;;;;;;12.00;4.43;;;12.60;99.90;;;;;;6150487;23;20008;-72
2023/09/24 00:05:46;;;;;;;6.07;4.25;;;12.60;99.90;;;;;;6124452;23;20077;-71
2023/09/24 00:08:12;;;;;;;5.20;3.90;;;12.60;99.90;;;;;;6123690;23;20074;-71
2023/09/24 00:10:38;;;;;;;7.45;4.60;;;12.50;99.90;;;;;;6150549;23;20077;-71
2023/09/24 00:13:03;;;;;;;4.88;4.10;;;12.50;99.90;;;;;;6150173;23;20017;-72
2023/09/24 00:15:30;;;;;;;7.35;4.88;;;12.40;99.90;;;;;;6150492;23;20001;-72
2023/09/24 00:17:56;;;;;;;6.90;6.00;;;12.40;99.90;;;;;;6150157;23;20030;-72
2023/09/24 00:20:21;;;;;;;5.90;5.30;;;12.40;99.90;;;;;;6150081;23;20013;-72
2023/09/24 00:22:47;;;;;;;7.68;5.45;;;12.40;99.90;;;;;;6149737;23;20008;-72
2023/09/24 00:25:14;;;;;;;7.40;5.07;;;12.40;99.90;;;;;;6149934;23;20010;-72
2023/09/24 00:27:42;;;;;;;6.20;4.60;;;12.40;99.90;;;;;;6150400;23;19997;-71
2023/09/24 00:30:09;;;;;;;8.32;5.30;;;12.30;99.90;;;;;;6150026;23;20460;-71
2023/09/24 00:32:35;;;;;;;9.50;5.45;;;12.30;99.90;;;;;;6150738;23;20017;-71
2023/09/24 00:35:02;;;;;;;8.35;5.35;;;12.30;99.90;;;;;;6150314;23;20425;-71
2023/09/24 00:37:27;;;;;;;9.43;5.68;;;12.30;99.90;;;;;;6149911;23;20002;-71
2023/09/24 00:39:53;;;;;;;8.48;5.30;;;12.20;99.90;;;;;;6150005;23;20018;-71
2023/09/24 00:42:18;;;;;;;8.05;6.05;;;12.30;99.90;;;;;;6149922;23;19998;-71
2023/09/24 00:44:44;;;;;;;7.03;4.93;;;12.30;99.90;;;;;;6150200;23;20416;-71
2023/09/24 00:47:11;;;;;;;6.68;5.18;;;12.30;99.90;;;;;;6150467;23;20002;-71
2023/09/24 00:49:38;;;;;;;7.25;5.57;;;12.30;99.90;;;;;;6152148;23;20081;-71
2023/09/24 00:52:03;;;;;;;7.53;5.22;;;12.30;99.90;;;;;;6151553;23;20076;-72
2023/09/24 00:54:30;;;;;;;10.90;5.20;;;12.30;99.90;;;;;;6152433;23;20067;-72
2023/09/24 00:56:58;;;;;;;8.48;6.50;;;12.20;99.90;;;;;;6125876;23;20274;-71
2023/09/24 00:59:25;;;;;;;9.23;5.88;;;12.20;99.90;;;;;;6152034;23;20004;-71
2023/09/24 01:01:51;;;;;;;7.20;5.78;;;12.20;99.90;;;;;;6151920;23;20025;-71
2023/09/24 01:04:17;;;;;;;7.93;5.45;;;12.20;99.90;;;;;;6152054;23;19998;-71
2023/09/24 01:06:44;;;;;;;10.23;5.57;;;12.20;99.90;;;;;;6151590;23;20017;-71
2023/09/24 01:09:12;;;;;;;11.07;6.50;;;12.10;99.90;;;;;;6152426;23;20506;-72
2023/09/24 01:11:38;;;;;;;9.32;6.45;;;12.10;99.90;;;;;;6152010;23;20021;-72
2023/09/24 01:14:04;;;;;;;8.93;6.07;;;12.10;99.90;;;;;;6152211;23;20077;-71
2023/09/24 01:16:32;;;;;;;8.77;6.22;;;12.00;99.90;;;;;;6151912;23;20081;-71
2023/09/24 01:18:58;;;;;;;11.30;5.97;;;12.10;99.90;;;;;;6151947;23;20008;-71
2023/09/24 01:21:27;;;;;;;10.85;6.82;;;12.00;99.90;;;;;;6150813;23;20010;-71
2023/09/24 01:23:54;;;;;;;7.57;6.70;;;12.00;99.90;;;;;;6151898;23;20001;-72
2023/09/24 01:26:22;;;;;;;7.18;6.00;;;12.00;99.90;;;;;;6151618;23;20025;-72
2023/09/24 01:28:48;;;;;;;9.15;8.18;;;12.00;99.90;;;;;;6151929;23;20005;-71
2023/09/24 01:31:15;;;;;;;9.65;7.55;;;11.90;99.90;;;;;;6151550;23;20476;-71
2023/09/24 01:33:41;;;;;;;9.65;7.10;;;11.90;99.90;;;;;;6151793;23;20029;-71
2023/09/24 01:36:10;;;;;;;10.05;6.78;;;11.90;99.90;;;;;;6146134;23;20068;-71
2023/09/24 01:38:40;;;;;;;8.68;7.50;;;11.90;99.90;;;;;;6148613;23;20006;-71
2023/09/24 01:41:12;;;;;;;7.65;6.95;;;11.90;99.90;;;;;;6148173;23;20017;-71
2023/09/24 01:43:46;;;;;;;10.05;6.53;;;11.80;99.90;;;;;;6147689;23;20605;-71
2023/09/24 01:46:15;;;;;;;8.43;7.63;;;11.80;99.90;;;;;;6147882;23;20755;-71
2023/09/24 01:48:43;;;;;;;9.65;7.03;;;11.80;99.90;;;;;;6147120;23;20029;-72
2023/09/24 01:51:12;;;;;;;11.38;7.32;;;11.70;99.90;;;;;;6148259;23;20093;-71
2023/09/24 01:53:38;;;;;;;11.35;7.60;;;11.80;99.90;;;;;;6148406;23;20080;-71
2023/09/24 01:56:04;;;;;;;14.75;9.00;;;11.70;99.90;;;;;;6148138;23;20305;-71
2023/09/24 01:58:30;;;;;;;10.63;9.15;;;11.70;99.90;;;;;;6148084;23;20072;-71
2023/09/24 02:00:56;;;;;;;12.00;8.27;;;11.70;99.90;;;;;;6148032;23;20088;-71
2023/09/24 02:03:21;;;;;;;11.90;7.05;;;11.70;99.90;;;;;;6147179;23;20088;-71
2023/09/24 02:05:47;;;;;;;11.70;7.70;;;11.60;99.90;;;;;;6121416;23;20219;-71
2023/09/24 02:08:14;;;;;;;10.77;8.15;;;11.60;99.90;;;;;;6147643;23;20001;-71
2023/09/24 02:10:41;;;;;;;11.90;9.57;;;11.60;99.90;;;;;;6147433;23;20056;-71
2023/09/24 02:13:11;;;;;;;12.20;8.88;;;11.60;99.90;;;;;;6119618;23;20032;-71
2023/09/24 02:15:38;;;;;;;11.18;8.60;;;11.60;99.90;;;;;;6119006;23;20033;-71
2023/09/24 02:18:05;;;;;;;9.77;7.70;;;11.60;99.90;;;;;;6118729;23;20036;-72
2023/09/24 02:22:58;;;;;;;10.80;8.68;;;11.50;99.90;;;;;;6145799;23;20009;-71
2023/09/24 02:25:25;;;;;;;10.70;7.85;;;11.60;99.90;;;;;;6145957;23;20333;-71
2023/09/24 02:27:51;;;;;;;13.35;9.80;;;11.60;99.90;;;;;;6146499;23;20009;-72
2023/09/24 02:30:22;;;;;;;11.23;9.25;;;11.50;99.90;;;;;;6147746;23;20010;-72
2023/09/24 02:32:47;;;;;;;8.63;7.35;;;11.50;99.90;;;;;;6146646;23;20327;-71
2023/09/24 02:35:14;;;;;;;11.02;8.73;;;11.50;99.90;;;;;;6147237;23;20005;-71
2023/09/24 02:37:44;;;;;;;10.63;8.52;;;11.50;99.90;;;;;;6120821;23;20009;-71
2023/09/24 02:40:16;;;;;;;11.20;9.05;;;11.40;99.90;;;;;;6150365;23;20087;-71
2023/09/24 02:42:43;;;;;;;10.95;8.85;;;11.40;99.90;;;;;;6123665;23;20012;-71
2023/09/24 02:45:10;;;;;;;9.65;8.07;;;11.40;99.90;;;;;;6149906;23;20084;-71
2023/09/24 02:47:36;;;;;;;14.52;8.98;;;11.40;99.90;;;;;;6150217;23;20028;-71
2023/09/24 02:50:08;;;;;;;17.27;10.90;;;11.40;99.90;;;;;;6150815;23;20048;-72
2023/09/24 02:52:35;;;;;;;16.52;10.07;;;11.40;99.90;;;;;;6151470;23;20049;-71
2023/09/24 02:55:00;;;;;;;10.23;8.30;;;11.30;99.90;;;;;;6151246;23;20001;-71
2023/09/24 02:57:27;;;;;;;13.40;10.50;;;11.30;99.90;;;;;;6151313;23;20072;-71
2023/09/24 02:59:52;;;;;;;9.68;8.23;;;11.30;99.90;;;;;;6151002;23;20001;-71
2023/09/24 03:02:18;;;;;;;15.57;8.98;;;11.30;99.90;;;;;;6150520;23;20005;-71
2023/09/24 03:04:43;;;;;;;17.70;10.68;;;11.20;99.90;;;;;;6151174;23;20076;-71
2023/09/24 03:07:09;;;;;;;12.65;8.85;;;11.20;99.90;;;;;;6125490;23;20084;-72
2023/09/24 03:09:35;;;;;;;11.60;9.45;;;11.20;99.90;;;;;;6124657;23;20029;-71
2023/09/24 03:12:00;;;;;;;12.65;8.50;;;11.10;99.90;;;;;;6151352;23;20021;-72
2023/09/24 03:14:26;;;;;;;12.60;9.63;;;11.10;99.90;;;;;;6150888;23;20056;-71
2023/09/24 03:16:51;;;;;;;13.23;9.55;;;11.10;99.90;;;;;;6150438;23;20006;-71
2023/09/24 03:19:18;;;;;;;12.43;8.20;;;11.10;99.90;;;;;;6151000;23;19997;-71
2023/09/24 03:21:43;;;;;;;14.88;9.68;;;11.00;99.90;;;;;;6124477;23;20014;-71
2023/09/24 03:24:11;;;;;;;10.02;8.85;;;11.00;99.90;;;;;;6151114;23;20082;-71
2023/09/24 03:26:37;;;;;;;9.65;8.65;;;11.00;99.90;;;;;;6124456;23;20009;-71
2023/09/24 03:29:03;;;;;;;14.80;9.32;;;11.00;99.90;;;;;;6151045;23;20001;-71
2023/09/24 03:31:29;;;;;;;11.38;8.40;;;11.00;99.90;;;;;;6150582;23;20001;-72
2023/09/24 03:33:54;;;;;;;13.35;9.02;;;11.00;99.90;;;;;;6150568;23;20017;-71
2023/09/24 03:36:20;;;;;;;10.32;8.23;;;10.90;99.90;;;;;;6124842;23;20009;-70
2023/09/24 03:38:46;;;;;;;11.23;10.07;;;11.00;99.90;;;;;;6151059;23;20052;-70
2023/09/24 03:41:12;;;;;;;15.52;10.52;;;10.90;99.90;;;;;;6150531;23;20089;-70
2023/09/24 03:43:37;;;;;;;15.52;10.30;;;10.90;99.90;;;;;;6150524;23;20033;-70
2023/09/24 03:46:03;;;;;;;10.57;9.50;;;10.80;99.90;;;;;;6150191;23;20004;-70
2023/09/24 03:48:28;;;;;;;15.77;10.30;;;10.90;99.90;;;;;;6151106;23;20001;-70
2023/09/24 03:50:54;;;;;;;12.15;10.95;;;10.90;99.90;;;;;;6150357;23;20332;-70
2023/09/24 03:53:19;;;;;;;12.48;10.30;;;10.80;99.90;;;;;;6150985;23;20001;-70
2023/09/24 03:55:45;;;;;;;14.85;11.55;;;10.90;99.90;;;;;;6150841;23;20001;-70
2023/09/24 03:58:12;;;;;;;9.68;8.77;;;10.80;99.90;;;;;;6150862;23;20475;-70
2023/09/24 04:00:37;;;;;;;10.55;9.45;;;10.80;99.90;;;;;;6149770;23;20027;-70
2023/09/24 04:03:03;;;;;;;11.00;8.77;;;10.80;99.90;;;;;;6124990;23;20025;-71
2023/09/24 04:05:30;;;;;;;9.18;8.18;;;10.80;99.90;;;;;;6151084;23;20002;-71
2023/09/24 04:07:56;;;;;;;10.57;9.48;;;10.80;99.90;;;;;;6124150;23;20445;-71
2023/09/24 04:10:27;;;;;;;10.25;8.38;;;10.80;99.90;;;;;;6150762;23;20012;-72
2023/09/24 04:12:52;;;;;;;11.40;9.00;;;10.80;99.90;;;;;;6150423;23;20006;-72
2023/09/24 04:15:27;;;;;;;11.27;8.77;;;10.70;99.90;;;;;;6150403;23;20015;-72
2023/09/24 04:17:55;;;;;;;13.73;9.13;;;10.70;99.90;;;;;;6150466;23;20003;-71
2023/09/24 04:20:20;;;;;;;9.80;8.45;;;10.70;99.90;;;;;;6150636;23;20006;-71
2023/09/24 04:22:47;;;;;;;11.35;10.00;;;10.70;99.90;;;;;;6150189;23;20006;-71
2023/09/24 04:25:14;;;;;;;10.45;8.65;;;10.70;99.90;;;;;;6150747;23;20017;-71
2023/09/24 04:27:43;;;;;;;11.02;7.90;;;10.70;99.90;;;;;;6124207;23;20032;-71
2023/09/24 04:30:16;;;;;;;10.27;8.90;;;10.60;99.90;;;;;;6150026;23;20006;-71
2023/09/24 04:32:43;;;;;;;11.63;10.13;;;10.60;99.90;;;;;;6150308;23;20005;-71
2023/09/24 04:35:12;;;;;;;12.13;10.00;;;10.60;99.90;;;;;;6150341;23;20084;-71
2023/09/24 04:37:39;;;;;;;10.95;8.88;;;10.50;99.90;;;;;;6123964;23;20344;-71
2023/09/24 04:40:14;;;;;;;12.18;10.90;;;10.50;99.90;;;;;;6150653;23;20073;-71
2023/09/24 04:42:43;;;;;;;18.55;11.95;;;10.50;99.90;;;;;;6149452;23;20408;-71
2023/09/24 04:45:12;;;;;;;15.10;10.57;;;10.50;99.90;;;;;;6149359;23;20013;-71
2023/09/24 04:47:39;;;;;;;12.20;9.18;;;10.50;99.90;;;;;;6149706;23;20012;-71
2023/09/24 04:50:06;;;;;;;14.18;8.45;;;10.50;99.90;;;;;;6148977;23;20367;-71
2023/09/24 04:52:33;;;;;;;11.18;9.98;;;10.40;99.90;;;;;;6150084;23;20009;-71
2023/09/24 04:54:59;;;;;;;11.07;9.98;;;10.40;99.90;;;;;;6124041;23;20013;-71
2023/09/24 04:57:24;;;;;;;9.95;9.05;;;10.40;99.90;;;;;;6149767;23;20106;-71
2023/09/24 04:59:53;;;;;;;15.13;10.52;;;10.40;99.90;;;;;;6150445;23;20005;-71
2023/09/24 05:02:23;;;;;;;12.77;10.23;;;10.40;99.90;;;;;;6150417;23;20006;-71
2023/09/24 05:04:49;;;;;;;11.55;9.75;;;10.30;99.90;;;;;;6150257;23;20001;-71
2023/09/24 05:07:15;;;;;;;13.73;9.38;;;10.30;99.90;;;;;;6150305;23;20073;-72
2023/09/24 05:09:42;;;;;;;15.05;10.00;;;10.30;99.90;;;;;;6150122;23;19997;-71
2023/09/24 05:12:07;;;;;;;17.50;10.23;;;10.30;99.90;;;;;;6123704;23;20009;-72
2023/09/24 05:14:33;;;;;;;12.98;10.60;;;10.20;99.90;;;;;;6150552;23;20305;-71
2023/09/24 05:17:00;;;;;;;10.40;9.38;;;10.20;99.90;;;;;;6150344;23;20004;-71
2023/09/24 05:19:26;;;;;;;10.52;9.38;;;10.20;99.90;;;;;;6150147;23;20073;-71
2023/09/24 05:21:51;;;;;;;14.68;9.93;;;10.20;99.90;;;;;;6149935;23;20040;-71
2023/09/24 05:24:17;;;;;;;12.70;10.57;;;10.20;99.90;;;;;;6150525;23;20268;-71
2023/09/24 05:26:44;;;;;;;9.90;8.15;;;10.20;99.90;;;;;;6149523;23;20011;-72
2023/09/24 05:29:09;;;;;;;10.25;9.15;;;10.20;99.90;;;;;;6150183;23;20073;-71
2023/09/24 05:31:35;;;;;;;11.82;10.00;;;10.20;99.90;;;;;;6150470;23;20032;-71
2023/09/24 05:34:04;;;;;;;10.68;9.68;;;10.20;99.90;;;;;;6151277;23;20006;-71
2023/09/24 05:36:30;;;;;;;11.90;10.70;;;10.10;99.90;;;;;;6152378;23;20012;-71
2023/09/24 05:38:56;;;;;;;10.32;9.20;;;10.20;99.90;;;;;;6151666;23;20001;-71
2023/09/24 05:41:22;;;;;;;16.40;10.38;;;10.20;99.90;;;;;;6151598;23;20075;-71
2023/09/24 05:43:48;;;;;;;18.92;12.32;;;10.20;99.90;;;;;;6151595;23;20021;-72
2023/09/24 05:46:16;;;;;;;15.15;10.40;;;10.20;99.90;;;;;;6151995;23;20027;-71
2023/09/24 05:48:43;;;;;;;13.35;11.65;;;10.20;99.90;;;;;;6151541;23;20001;-71
2023/09/24 05:51:09;;;;;;;14.93;10.38;;;10.20;99.90;;;;;;6152016;23;20005;-71
2023/09/24 05:53:34;;;;;;;11.63;10.52;;;10.20;99.90;;;;;;6151788;23;20001;-71
2023/09/24 05:56:03;;;;;;;13.10;9.60;;;10.20;99.90;;;;;;6151543;23;20036;-71
2023/09/24 05:58:29;;;;;;;12.77;11.20;;;10.20;99.90;;;;;;6152030;23;20070;-71
2023/09/24 06:00:58;;;;;;;13.23;10.88;;;10.20;99.90;;;;;;6151657;23;20125;-71
2023/09/24 06:03:23;;;;;;;14.75;11.77;;;10.20;99.90;;;;;;6151680;23;20327;-71
2023/09/24 06:05:49;;;;;;;14.73;10.60;;;10.20;99.90;;;;;;6151936;23;20036;-71
2023/09/24 06:08:15;;;;;;;15.75;11.05;;;10.20;99.90;;;;;;6151914;23;20009;-71
2023/09/24 06:10:44;;;;;;;11.25;10.10;;;10.30;99.90;;;;;;6151222;23;20119;-71
2023/09/24 06:13:14;;;;;;;10.07;8.65;;;10.30;99.90;;;;;;6151811;23;20016;-71
2023/09/24 06:15:41;;;;;;;10.05;8.98;;;10.30;99.90;;;;;;6151555;23;20415;-71
2023/09/24 06:18:06;;;;;;;14.85;9.80;;;10.40;99.90;;;;;;6151603;23;20033;-71
2023/09/24 06:20:36;;;;;;;11.90;10.68;;;10.40;99.90;;;;;;6125808;23;20033;-71
2023/09/24 06:23:02;;;;;;;11.05;9.05;;;10.50;99.90;;;;;;6125244;23;20435;-71
2023/09/24 06:25:28;;;;;;;9.77;8.82;;;10.50;99.90;;;;;;6151487;23;20013;-71
2023/09/24 06:27:54;;;;;;;13.65;9.27;;;10.60;99.90;;;;;;6151442;23;20360;-71
2023/09/24 06:30:19;;;;;;;10.68;9.27;;;10.60;99.90;;;;;;6151954;23;20308;-71
2023/09/24 06:32:45;;;;;;;12.63;9.63;;;10.70;99.90;;;;;;6151096;23;20088;-71
2023/09/24 06:35:11;;;;;;;12.77;10.73;;;10.70;99.90;;;;;;6151598;23;20047;-71
2023/09/24 06:37:36;;;;;;;12.73;10.98;;;10.80;99.90;;;;;;6151538;23;20415;-71
2023/09/24 06:40:02;;;;;;;13.00;10.63;;;10.90;99.90;;;;;;6124635;23;20014;-71
2023/09/24 06:42:28;;;;;;;13.00;10.35;;;11.00;99.90;;;;;;6151601;23;20077;-71
2023/09/24 06:44:54;;;;;;;20.60;12.13;;;11.10;99.90;;;;;;6150716;23;20072;-71
2023/09/24 06:47:19;;;;;;;11.43;10.25;;;11.10;99.90;;;;;;6150816;23;20081;-72
2023/09/24 06:49:49;;;;;;;14.25;10.77;;;11.20;99.90;;;;;;6151070;23;20001;-71
2023/09/24 06:52:14;;;;;;;13.55;11.23;;;11.30;99.90;;;;;;6150965;23;20077;-71
2023/09/24 06:54:40;;;;;;;13.63;11.65;;;11.30;99.90;;;;;;6150720;23;20450;-71
2023/09/24 06:57:06;;;;;;;12.75;9.43;;;11.40;99.90;;;;;;6150950;23;20035;-71
2023/09/24 06:59:31;;;;;;;11.18;9.30;;;11.50;99.90;;;;;;6151231;23;20006;-71
2023/09/24 07:01:57;;;;;;;14.18;10.40;;;11.50;99.90;;;;;;6150842;23;20032;-71
2023/09/24 07:04:22;;;;;;;12.25;9.00;;;11.60;99.90;;;;;;6151355;23;20486;-71
2023/09/24 07:06:50;;;;;;;13.40;8.65;;;11.60;99.90;;;;;;6150827;23;20076;-71
2023/09/24 07:09:16;;;;;;;9.25;7.93;;;11.70;99.90;;;;;;6150767;23;19997;-71
2023/09/24 07:11:42;;;;;;;10.30;9.18;;;11.70;99.90;;;;;;6150665;23;20015;-71
2023/09/24 07:14:07;;;;;;;11.18;9.27;;;11.80;99.90;;;;;;6150940;23;20035;-71
2023/09/24 07:16:34;;;;;;;10.48;9.45;;;11.80;99.90;;;;;;6151119;23;20012;-71
2023/09/24 07:19:00;;;;;;;15.77;9.07;;;11.80;99.90;;;;;;6150679;23;20021;-71
2023/09/24 07:21:28;;;;;;;10.75;7.85;;;11.90;99.90;;;;;;6150898;23;20010;-72
2023/09/24 07:23:58;;;;;;;11.90;9.68;;;11.90;99.90;;;;;;6150615;23;20354;-72
2023/09/24 07:26:25;;;;;;;13.05;9.95;;;12.00;99.90;;;;;;6151177;23;20005;-73
2023/09/24 07:28:51;;;;;;;11.52;8.95;;;12.10;99.90;;;;;;6150956;23;20077;-72
2023/09/24 07:31:21;;;;;;;10.60;8.20;;;12.10;99.90;;;;;;6151199;23;20005;-71
2023/09/24 07:33:47;;;;;;;9.15;8.20;;;12.10;99.90;;;;;;6150966;23;20451;-71
2023/09/24 07:36:13;;;;;;;9.40;7.75;;;12.10;99.90;;;;;;6150758;23;20072;-71
2023/09/24 07:38:40;;;;;;;9.60;7.05;;;12.20;99.90;;;;;;6150573;23;20076;-71
2023/09/24 07:41:07;;;;;;;8.55;7.78;;;12.20;99.90;;;;;;6150824;23;20097;-71
2023/09/24 07:43:34;;;;;;;8.20;7.00;;;12.20;99.90;;;;;;6150943;23;20009;-71
2023/09/24 07:46:00;;;;;;;9.00;7.28;;;12.30;99.90;;;;;;6150713;23;20065;-71
2023/09/24 07:48:25;;;;;;;9.98;7.07;;;12.30;99.90;;;;;;6124785;23;20005;-71
2023/09/24 07:50:54;;;;;;;7.45;6.72;;;12.30;99.90;;;;;;6150140;23;20005;-71
2023/09/24 07:53:22;;;;;;;9.82;6.40;;;12.40;99.90;;;;;;6150796;23;20384;-71
2023/09/24 07:56:06;;;;;;;9.52;6.85;;;12.50;99.90;;;;;;6150708;23;20026;-71
2023/09/24 07:58:33;;;;;;;9.13;6.65;;;12.60;99.90;;;;;;6124946;23;20029;-71
2023/09/24 08:01:03;;;;;;;9.45;6.60;;;12.60;99.90;;;;;;6150420;23;20088;-71
2023/09/24 08:03:29;;;;;;;11.38;7.15;;;12.70;99.90;;;;;;6150859;23;20136;-71
2023/09/24 08:05:55;;;;;;;9.35;6.20;;;12.70;99.90;;;;;;6149828;23;20074;-71
2023/09/24 08:08:20;;;;;;;11.82;6.20;;;12.80;99.90;;;;;;6151059;23;20040;-71
2023/09/24 08:10:46;;;;;;;11.95;6.43;;;12.80;99.90;;;;;;6150586;23;20005;-71
2023/09/24 08:13:11;;;;;;;7.43;5.93;;;12.90;99.90;;;;;;6150390;23;20041;-70
2023/09/24 08:15:37;;;;;;;7.03;6.43;;;13.00;99.90;;;;;;6150726;23;20107;-70
2023/09/24 08:18:08;;;;;;;8.63;6.45;;;13.10;99.90;;;;;;6150348;23;20451;-71
2023/09/24 08:20:37;;;;;;;7.88;5.60;;;13.10;99.90;;;;;;6123972;23;20084;-71
2023/09/24 08:23:03;;;;;;;8.43;6.00;;;13.20;99.90;;;;;;6150326;23;20025;-71
2023/09/24 08:25:30;;;;;;;9.10;5.70;;;13.30;99.90;;;;;;6151059;23;20443;-71
2023/09/24 08:27:56;;;;;;;8.07;5.30;;;13.30;99.90;;;;;;6150139;23;20009;-71
2023/09/24 08:30:21;;;;;;;6.45;4.32;;;13.40;99.90;;;;;;6150936;23;20332;-71
2023/09/24 08:32:47;;;;;;;8.73;4.63;;;13.50;99.90;;;;;;6150321;23;20064;-70
2023/09/24 08:35:12;;;;;;;9.55;4.57;;;13.60;99.90;;;;;;6149845;23;20005;-71
2023/09/24 08:37:38;;;;;;;9.27;4.47;;;13.60;99.90;;;;;;6150237;23;20009;-71
2023/09/24 08:40:04;;;;;;;5.75;3.83;;;13.70;99.90;;;;;;6150315;23;20018;-71
2023/09/24 08:42:32;;;;;;;7.00;3.95;;;13.80;99.90;;;;;;6150486;23;20431;-71
2023/09/24 08:45:19;;;;;;;8.18;4.18;;;13.80;99.90;;;;;;6149933;23;20079;-71
2023/09/24 08:47:46;;;;;;;7.13;4.43;;;13.90;99.90;;;;;;6150912;23;20005;-71
2023/09/24 08:50:12;;;;;;;4.95;3.28;;;14.00;99.90;;;;;;6149790;23;20016;-70
2023/09/24 08:52:42;;;;;;;5.32;3.30;;;14.00;99.90;;;;;;6124465;23;20408;-71
2023/09/24 08:55:09;;;;;;;7.35;3.78;;;14.10;99.90;;;;;;6150536;23;20085;-71
2023/09/24 08:57:36;;;;;;;5.95;3.92;;;14.20;99.90;;;;;;6150542;23;20424;-71
2023/09/24 09:00:05;;;;;;;4.53;3.25;;;14.30;99.90;;;;;;6149916;23;20017;-71
2023/09/24 09:02:31;;;;;;;6.63;3.58;;;14.30;99.90;;;;;;6150612;23;20069;-71
2023/09/24 09:04:57;;;;;;;7.78;3.65;;;14.40;99.90;;;;;;6149520;23;20076;-71
2023/09/24 09:07:23;;;;;;;5.75;3.08;;;14.50;99.90;;;;;;6150289;23;19998;-71
2023/09/24 09:09:56;;;;;;;8.15;3.95;;;14.50;99.90;;;;;;6152190;23;20400;-71
2023/09/24 09:12:23;;;;;;;6.40;3.00;;;14.70;99.90;;;;;;6152403;23;20124;-71
2023/09/24 09:14:49;;;;;;;8.15;4.55;;;14.70;99.90;;;;;;6150866;23;20028;-71
2023/09/24 09:17:15;;;;;;;5.50;3.45;;;14.80;99.90;;;;;;6152324;23;20029;-72
2023/09/24 09:19:52;;;;;;;5.38;3.13;;;14.80;99.90;;;;;;6151348;23;20005;-71
2023/09/24 09:22:27;;;;;;;6.30;3.03;;;14.90;99.90;;;;;;6152255;23;20061;-71
2023/09/24 09:25:07;;;;;;;4.45;3.17;;;15.10;99.90;;;;;;6151895;23;19997;-71
2023/09/24 09:27:37;;;;;;;4.97;2.67;;;15.20;99.90;;;;;;6151889;23;20352;-71
2023/09/24 09:30:29;;;;;;;6.50;3.22;;;15.30;99.90;;;;;;6151787;23;20008;-71
2023/09/24 09:32:55;;;;;;;8.00;2.83;;;15.50;99.90;;;;;;6146852;23;20008;-71
2023/09/24 09:35:32;;;;;;;5.30;2.40;;;15.50;99.90;;;;;;6152040;23;20073;-72
2023/09/24 09:38:11;;;;;;;4.28;2.88;;;15.60;99.90;;;;;;6151541;23;20325;-74
2023/09/24 09:40:37;;;;;;;5.65;2.72;;;15.70;99.90;;;;;;6125707;23;20040;-73
2023/09/24 09:43:04;;;;;;;5.13;2.92;;;15.80;99.90;;;;;;6125653;23;20002;-72
2023/09/24 09:45:31;;;;;;;6.10;3.03;;;15.90;99.90;;;;;;6152061;23;20395;-73
2023/09/24 09:48:03;;;;;;;6.10;2.78;;;16.00;99.90;;;;;;6151162;23;20010;-70
2023/09/24 09:50:32;;;;;;;8.68;2.97;;;16.10;99.90;;;;;;6152187;23;20029;-71
2023/09/24 09:53:06;;;;;;;3.20;2.45;;;16.30;99.90;;;;;;6151760;23;20014;-70
2023/09/24 09:55:42;;;;;;;3.10;2.45;;;16.30;99.90;;;;;;6152312;23;20137;-72
2023/09/24 09:58:10;;;;;;;5.35;2.88;;;16.40;99.90;;;;;;6151998;23;19998;-71
2023/09/24 10:00:36;;;;;;;5.45;2.90;;;16.50;99.90;;;;;;6125807;23;20017;-71
2023/09/24 10:03:03;;;;;;;5.55;2.97;;;16.50;99.90;;;;;;6151285;23;20069;-71
2023/09/24 10:05:30;;;;;;;5.03;2.47;;;16.60;99.90;;;;;;6152105;23;20001;-71
2023/09/24 10:07:56;;;;;;;5.05;2.50;;;16.70;99.90;;;;;;6151253;23;20057;-72
2023/09/24 10:10:30;;;;;;;3.92;1.90;;;16.70;99.90;;;;;;6151749;23;20009;-71
2023/09/24 10:12:57;;;;;;;6.95;2.20;;;16.80;99.90;;;;;;6151914;23;20005;-72
2023/09/24 10:15:25;;;;;;;6.15;2.28;;;16.80;99.90;;;;;;6151816;23;20009;-72
2023/09/24 10:18:09;;;;;;;3.80;1.40;;;16.90;99.90;;;;;;6150831;23;20296;-71
2023/09/24 10:20:50;;;;;;;6.25;1.92;;;17.00;99.90;;;;;;6150907;23;20009;-72
2023/09/24 10:23:32;;;;;;;3.78;1.75;;;17.00;99.90;;;;;;6125527;23;20058;-71
2023/09/24 10:26:04;;;;;;;4.03;1.65;;;17.10;99.90;;;;;;6125988;23;20381;-72
2023/09/24 10:28:50;;;;;;;5.18;2.03;;;17.20;99.90;;;;;;6151259;23;20002;-72
2023/09/24 10:31:17;;;;;;;6.40;1.17;;;17.20;99.90;;;;;;6151122;23;20015;-71
2023/09/24 10:34:00;;;;;;;2.65;1.08;;;17.20;99.90;;;;;;6149339;23;20012;-72
2023/09/24 10:36:30;;;;;;;4.95;1.20;;;17.30;99.90;;;;;;6149491;23;20002;-72
2023/09/24 10:39:14;;;;;;;3.40;1.17;;;17.30;99.90;;;;;;6150130;23;20033;-72
2023/09/24 10:42:13;;;;;;;4.35;1.42;;;17.30;99.90;;;;;;6150129;23;20016;-72
2023/09/24 10:44:39;;;;;;;3.30;1.05;;;17.30;99.90;;;;;;6150868;23;20068;-71
2023/09/24 10:47:24;;;;;;;3.72;0.93;;;17.30;99.90;;;;;;6150687;23;20001;-73
2023/09/24 10:50:06;;;;;;;4.18;1.48;;;17.40;99.90;;;;;;6151204;23;20116;-72
2023/09/24 10:52:59;;;;;;;6.70;1.42;;;17.40;99.90;;;;;;6151560;23;20009;-71
2023/09/24 10:55:30;;;;;;;3.05;0.88;;;17.40;99.90;;;;;;6151105;23;20372;-71
2023/09/24 10:57:58;;;;;;;2.53;0.90;;;17.40;99.90;;;;;;6150943;23;20024;-72
2023/09/24 11:00:25;;;;;;;4.28;1.45;;;17.40;99.90;;;;;;6150011;23;20001;-72
2023/09/24 11:03:06;;;;;;;4.60;0.80;;;17.50;99.90;;;;;;6150284;23;19997;-72
2023/09/24 11:05:41;;;;;;;3.13;0.90;;;17.50;99.90;;;;;;6151780;23;20405;-71
2023/09/24 11:08:07;;;;;;;3.72;0.95;;;17.50;99.70;;;;;;6150031;23;20052;-71
2023/09/24 11:10:33;;;;;;;4.68;1.10;;;17.50;99.70;;;;;;6151699;23;20038;-72
2023/09/24 11:13:00;;;;;;;2.13;0.90;;;17.60;99.70;;;;;;6149936;23;20010;-72
2023/09/24 11:15:32;;;;;;;3.15;0.70;;;17.60;99.60;;;;;;6150194;23;20008;-72
2023/09/24 11:17:58;;;;;;;2.22;1.05;;;17.70;99.40;;;;;;6150494;23;20079;-71
2023/09/24 11:20:25;;;;;;;2.92;1.55;;;17.70;99.40;;;;;;6149342;23;20006;-71
2023/09/24 11:23:06;;;;;;;3.08;0.77;;;17.70;99.20;;;;;;6150685;23;20072;-71
2023/09/24 11:25:32;;;;;;;2.45;0.98;;;17.80;98.90;;;;;;6151516;23;20096;-71
2023/09/24 11:28:00;;;;;;;2.92;1.02;;;17.70;98.80;;;;;;6150427;23;20470;-72
2023/09/24 11:30:49;;;;;;;4.25;0.95;;;17.80;98.80;;;;;;6150519;23;20369;-71
2023/09/24 11:33:20;;;;;;;2.45;0.80;;;17.90;98.60;;;;;;6151129;23;20079;-71
2023/09/24 11:35:46;;;;;;;3.88;1.23;;;17.90;98.50;;;;;;6150695;23;20005;-71
2023/09/24 11:38:12;;;;;;;3.90;1.02;;;17.90;98.50;;;;;;6150914;23;20077;-71
2023/09/24 11:40:41;;;;;;;2.40;0.80;;;17.90;98.20;;;;;;6151017;23;20016;-71
2023/09/24 11:43:16;;;;;;;7.70;0.70;;;18.00;98.00;;;;;;6149372;23;20008;-72
2023/09/24 11:45:55;;;;;;;3.20;1.48;;;18.00;97.80;;;;;;6150607;23;20294;-71
2023/09/24 11:48:28;;;;;;;4.88;0.90;;;18.10;97.70;;;;;;6124544;23;20048;-71
2023/09/24 11:51:00;;;;;;;4.20;1.00;;;18.10;97.60;;;;;;6150425;23;20033;-71
2023/09/24 11:53:26;;;;;;;4.28;1.20;;;18.10;97.30;;;;;;6150910;23;20225;-72
2023/09/24 11:55:54;;;;;;;4.15;0.82;;;18.20;97.10;;;;;;6150404;23;20029;-71
2023/09/24 11:58:22;;;;;;;2.95;0.82;;;18.20;97.00;;;;;;6150119;23;20009;-71
2023/09/24 12:00:48;;;;;;;4.45;1.08;;;18.40;97.20;;;;;;6150349;23;20053;-71
2023/09/24 12:03:14;;;;;;;3.97;0.68;;;18.40;97.00;;;;;;6150026;23;19997;-71
2023/09/24 12:05:41;;;;;;;2.72;0.98;;;18.50;96.60;;;;;;6124475;23;20001;-71
2023/09/24 12:08:08;;;;;;;5.55;1.38;;;18.60;96.90;;;;;;6150265;23;20024;-72
2023/09/24 12:10:38;;;;;;;2.97;1.05;;;18.70;96.70;;;;;;6150970;23;20001;-72
2023/09/24 12:13:04;;;;;;;3.88;1.10;;;18.80;96.30;;;;;;6149923;23;20847;-72
2023/09/24 12:15:31;;;;;;;2.38;0.80;;;18.80;96.20;;;;;;6151078;23;20064;-71
2023/09/24 12:17:57;;;;;;;4.05;1.13;;;18.90;96.30;;;;;;6150240;23;20060;-72
2023/09/24 12:20:23;;;;;;;5.45;1.55;;;18.90;96.10;;;;;;6150840;23;20371;-72
2023/09/24 12:22:49;;;;;;;3.35;0.80;;;19.00;96.20;;;;;;6149522;23;20009;-72
2023/09/24 12:25:15;;;;;;;3.15;0.90;;;19.10;96.20;;;;;;6150974;23;20002;-72
2023/09/24 12:27:40;;;;;;;7.53;1.55;;;19.10;95.90;;;;;;6123753;23;20005;-72
2023/09/24 12:30:10;;;;;;;3.35;0.88;;;19.10;96.00;;;;;;6150364;23;20076;-71
2023/09/24 12:32:36;;;;;;;2.42;0.82;;;19.10;95.70;;;;;;6150559;23;20006;-71
2023/09/24 12:35:03;;;;;;;2.15;0.90;;;19.00;95.00;;;;;;6150193;23;20020;-72
2023/09/24 12:37:29;;;;;;;2.78;1.13;;;19.00;95.00;;;;;;6124566;23;20067;-72
2023/09/24 12:39:55;;;;;;;4.40;0.90;;;19.00;95.00;;;;;;6150127;23;20001;-75
2023/09/24 12:42:21;;;;;;;2.63;0.80;;;18.90;95.00;;;;;;6123067;23;20352;-75
2023/09/24 12:44:48;;;;;;;8.63;1.13;;;18.90;95.00;;;;;;6152172;23;20036;-75
2023/09/24 12:47:14;;;;;;;3.38;0.98;;;18.90;94.90;;;;;;6152400;23;20077;-75